createdAt,value
2018-02-22T00:00:44.216Z,41.13
2018-02-22T00:03:13.455Z,38.33
2018-02-22T00:05:42.702Z,42.17
2018-02-22T00:08:12.726Z,40.73
2018-02-22T00:10:41.970Z,37.90
2018-02-22T00:13:11.206Z,40.73
2018-02-22T00:15:41.264Z,34.50
2018-02-22T00:18:10.504Z,39.30
2018-02-22T00:20:39.755Z,31.87
2018-02-22T00:23:08.985Z,47.60
2018-02-22T00:25:38.231Z,41.80
2018-02-22T00:28:07.467Z,40.70
2018-02-22T00:30:36.689Z,30.70
2018-02-22T00:33:06.091Z,37.40
2018-02-22T00:35:36.098Z,38.73
2018-02-22T00:38:05.327Z,40.00
2018-02-22T00:40:35.415Z,44.00
2018-02-22T00:43:05.504Z,39.77
2018-02-22T00:45:35.460Z,35.07
2018-02-22T00:48:04.698Z,36.00
2018-02-22T00:50:34.064Z,40.10
2018-02-22T00:53:04.350Z,44.23
2018-02-22T00:55:33.566Z,41.17
2018-02-22T00:58:02.893Z,43.97
2018-02-22T01:00:32.885Z,50.03
2018-02-22T01:03:02.151Z,45.80
2018-02-22T01:05:32.372Z,43.37
2018-02-22T01:08:01.593Z,42.10
2018-02-22T01:10:30.869Z,37.27
2018-02-22T01:13:00.086Z,43.40
2018-02-22T01:15:30.250Z,38.30
2018-02-22T01:18:00.298Z,42.93
2018-02-22T01:20:29.555Z,40.50
2018-02-22T01:22:59.722Z,45.10
2018-02-22T01:25:28.959Z,39.87
2018-02-22T01:27:58.266Z,41.47
2018-02-22T01:30:27.641Z,39.50
2018-02-22T01:32:56.875Z,41.93
2018-02-22T01:35:26.896Z,39.33
2018-02-22T01:37:56.973Z,45.20
2018-02-22T01:40:26.229Z,42.90
2018-02-22T01:42:56.326Z,37.73
2018-02-22T01:45:25.590Z,39.07
2018-02-22T01:47:54.799Z,35.80
2018-02-22T01:50:24.143Z,40.33
2018-02-22T01:52:54.302Z,41.30
2018-02-22T01:55:23.563Z,40.37
2018-02-22T01:57:52.758Z,45.00
2018-02-22T02:00:22.260Z,36.93
2018-02-22T02:02:52.274Z,36.47
2018-02-22T02:05:22.336Z,38.03
2018-02-22T02:07:51.550Z,42.63
2018-02-22T02:10:20.798Z,44.53
2018-02-22T02:12:50.150Z,38.90
2018-02-22T02:15:19.403Z,37.23
2018-02-22T02:17:48.650Z,43.23
2018-02-22T02:20:17.887Z,40.33
2018-02-22T02:22:47.116Z,42.23
2018-02-22T02:25:16.344Z,37.57
2018-02-22T02:27:50.947Z,41.50
2018-02-22T02:30:20.186Z,51.67
2018-02-22T02:32:50.195Z,44.33
2018-02-22T02:35:19.451Z,40.80
2018-02-22T02:37:48.807Z,47.30
2018-02-22T02:40:18.315Z,42.90
2018-02-22T02:42:48.342Z,41.70
2018-02-22T02:45:17.572Z,43.73
2018-02-22T02:47:46.807Z,44.77
2018-02-22T02:50:16.075Z,42.63
2018-02-22T02:52:45.327Z,40.70
2018-02-22T02:55:14.566Z,39.57
2018-02-22T02:57:44.672Z,37.57
2018-02-22T03:00:13.900Z,36.10
2018-02-22T03:02:43.363Z,35.47
2018-02-22T03:05:12.583Z,32.27
2018-02-22T03:07:41.807Z,41.57
2018-02-22T03:10:11.083Z,36.07
2018-02-22T03:12:40.309Z,42.37
2018-02-22T03:15:09.559Z,41.57
2018-02-22T03:17:38.805Z,38.23
2018-02-22T03:20:08.056Z,41.97
2018-02-22T03:22:37.316Z,40.50
2018-02-22T03:25:06.526Z,39.60
2018-02-22T03:27:35.981Z,39.20
2018-02-22T03:30:05.233Z,40.10
2018-02-22T03:32:34.709Z,38.53
2018-02-22T03:35:03.959Z,34.47
2018-02-22T03:37:33.203Z,41.13
2018-02-22T03:40:02.431Z,44.13
2018-02-22T03:42:31.765Z,46.03
2018-02-22T03:45:01.039Z,42.87
2018-02-22T03:47:30.270Z,41.37
2018-02-22T03:49:59.605Z,39.20
2018-02-22T03:52:29.600Z,45.13
2018-02-22T03:54:58.860Z,38.20
2018-02-22T03:57:28.092Z,38.07
2018-02-22T03:59:57.344Z,37.53
2018-02-22T04:02:26.832Z,35.10
2018-02-22T04:04:56.856Z,33.80
2018-02-22T04:07:26.851Z,32.10
2018-02-22T04:09:56.872Z,37.53
2018-02-22T04:12:27.105Z,34.20
2018-02-22T04:14:57.216Z,35.57
2018-02-22T04:17:27.251Z,30.73
2018-02-22T04:19:56.507Z,36.63
2018-02-22T04:22:25.745Z,34.87
2018-02-22T04:24:54.974Z,32.93
2018-02-22T04:27:24.260Z,32.97
2018-02-22T04:29:53.490Z,32.77
2018-02-22T04:32:22.788Z,35.97
2018-02-22T04:34:52.183Z,33.03
2018-02-22T04:37:21.420Z,34.37
2018-02-22T04:39:50.652Z,35.90
2018-02-22T04:42:19.927Z,28.53
2018-02-22T04:44:49.910Z,31.50
2018-02-22T04:47:19.135Z,35.07
2018-02-22T04:49:49.334Z,30.60
2018-02-22T04:52:18.648Z,35.30
2018-02-22T04:54:47.869Z,37.70
2018-02-22T04:57:17.854Z,35.00
2018-02-22T04:59:47.091Z,31.87
2018-02-22T05:02:16.387Z,35.00
2018-02-22T05:04:45.788Z,33.40
2018-02-22T05:07:15.763Z,33.47
2018-02-22T05:09:46.590Z,31.73
2018-02-22T05:12:15.835Z,35.47
2018-02-22T05:14:45.189Z,32.50
2018-02-22T05:17:14.480Z,31.70
2018-02-22T05:19:43.734Z,30.87
2018-02-22T05:22:13.714Z,33.30
2018-02-22T05:24:42.955Z,33.03
2018-02-22T05:27:12.168Z,29.70
2018-02-22T05:29:42.183Z,31.80
2018-02-22T05:32:11.423Z,32.60
2018-02-22T05:34:40.692Z,27.83
2018-02-22T05:37:09.989Z,28.17
2018-02-22T05:39:39.218Z,35.33
2018-02-22T05:42:08.480Z,31.13
2018-02-22T05:44:37.699Z,31.40
2018-02-22T05:47:07.012Z,29.80
2018-02-22T05:49:36.451Z,35.03
2018-02-22T05:52:05.628Z,32.30
2018-02-22T05:54:35.636Z,34.07
2018-02-22T05:57:05.326Z,38.17
2018-02-22T05:59:34.584Z,30.33
2018-02-22T06:02:03.810Z,31.40
2018-02-22T06:04:33.051Z,32.77
2018-02-22T06:07:02.299Z,35.70
2018-02-22T06:09:31.520Z,50.10
2018-02-22T06:12:00.776Z,42.77
2018-02-22T06:14:30.002Z,33.53
2018-02-22T06:16:59.270Z,30.53
2018-02-22T06:19:29.249Z,33.37
2018-02-22T06:21:58.488Z,35.33
2018-02-22T06:24:27.727Z,34.87
2018-02-22T06:26:56.957Z,29.70
2018-02-22T06:29:27.010Z,29.53
2018-02-22T06:31:56.247Z,37.60
2018-02-22T06:34:25.521Z,31.20
2018-02-22T06:36:54.740Z,28.80
2018-02-22T06:39:24.000Z,35.90
2018-02-22T06:41:53.269Z,35.83
2018-02-22T06:44:23.253Z,36.33
2018-02-22T06:46:53.243Z,33.97
2018-02-22T06:49:22.601Z,31.93
2018-02-22T06:51:52.726Z,36.10
2018-02-22T06:54:22.722Z,32.50
2018-02-22T06:56:52.718Z,32.47
2018-02-22T06:59:22.121Z,33.67
2018-02-22T07:01:51.503Z,31.10
2018-02-22T07:04:20.783Z,36.63
2018-02-22T07:06:50.042Z,27.23
2018-02-22T07:09:20.066Z,35.10
2018-02-22T07:11:50.088Z,33.70
2018-02-22T07:14:20.277Z,34.73
2018-02-22T07:16:49.574Z,38.03
2018-02-22T07:19:18.946Z,30.87
2018-02-22T07:21:48.216Z,33.50
2018-02-22T07:24:17.446Z,29.73
2018-02-22T07:26:46.817Z,27.53
2018-02-22T07:29:16.081Z,33.67
2018-02-22T07:31:46.098Z,30.13
2018-02-22T07:34:15.346Z,30.07
2018-02-22T07:36:44.557Z,28.97
2018-02-22T07:39:13.790Z,29.60
2018-02-22T07:41:43.038Z,30.30
2018-02-22T07:44:12.257Z,30.53
2018-02-22T07:46:41.487Z,32.07
2018-02-22T07:49:10.732Z,31.90
2018-02-22T07:51:39.996Z,35.33
2018-02-22T07:54:10.020Z,33.40
2018-02-22T07:56:40.020Z,29.57
2018-02-22T07:59:10.039Z,32.27
2018-02-22T08:01:40.024Z,33.30
2018-02-22T08:04:09.284Z,29.00
2018-02-22T08:06:38.497Z,34.13
2018-02-22T08:09:07.727Z,32.50
2018-02-22T08:11:36.951Z,33.37
2018-02-22T08:14:06.190Z,31.07
2018-02-22T08:16:35.526Z,33.07
2018-02-22T08:19:04.754Z,31.60
2018-02-22T08:21:34.447Z,30.67
2018-02-22T08:24:04.459Z,32.03
2018-02-22T08:26:33.680Z,32.00
2018-02-22T08:29:02.902Z,35.77
2018-02-22T08:31:32.171Z,29.67
2018-02-22T08:34:01.381Z,29.93
2018-02-22T08:36:30.675Z,31.30
2018-02-22T08:39:00.800Z,32.43
2018-02-22T08:41:30.057Z,31.57
2018-02-22T08:43:59.303Z,30.73
2018-02-22T08:46:28.744Z,31.00
2018-02-22T08:48:57.939Z,31.07
2018-02-22T08:51:27.197Z,32.13
2018-02-22T08:53:56.558Z,33.10
2018-02-22T08:56:25.802Z,31.87
2018-02-22T08:58:55.783Z,35.47
2018-02-22T09:01:25.024Z,39.03
2018-02-22T09:03:54.291Z,33.50
2018-02-22T09:06:24.328Z,30.63
2018-02-22T09:08:53.643Z,30.23
2018-02-22T09:11:22.859Z,34.07
2018-02-22T09:13:52.099Z,32.47
2018-02-22T09:16:22.094Z,30.93
2018-02-22T09:18:51.309Z,35.60
2018-02-22T09:21:20.637Z,31.50
2018-02-22T09:23:50.032Z,28.23
2018-02-22T09:26:19.260Z,30.87
2018-02-22T09:28:48.540Z,43.73
2018-02-22T09:31:18.512Z,34.70
2018-02-22T09:33:48.522Z,36.73
2018-02-22T09:36:17.741Z,34.80
2018-02-22T09:38:47.758Z,28.63
2018-02-22T09:41:17.131Z,27.90
2018-02-22T09:43:46.873Z,28.73
2018-02-22T09:46:16.080Z,32.00
2018-02-22T09:48:46.277Z,30.03
2018-02-22T09:51:15.512Z,28.60
2018-02-22T09:53:45.739Z,30.13
2018-02-22T09:56:15.715Z,26.90
2018-02-22T09:58:44.942Z,29.73
2018-02-22T10:01:14.174Z,27.33
2018-02-22T10:03:43.371Z,26.03
2018-02-22T10:06:12.655Z,26.90
2018-02-22T10:08:42.696Z,25.53
2018-02-22T10:11:12.115Z,23.27
2018-02-22T10:13:41.332Z,25.37
2018-02-22T10:16:11.343Z,27.70
2018-02-22T10:18:40.598Z,23.63
2018-02-22T10:21:10.558Z,22.43
2018-02-22T10:23:41.198Z,23.37
2018-02-22T10:26:11.215Z,25.30
2018-02-22T10:28:41.232Z,24.77
2018-02-22T10:31:11.336Z,26.23
2018-02-22T10:33:40.563Z,26.03
2018-02-22T10:36:09.842Z,21.77
2018-02-22T10:38:39.863Z,21.50
2018-02-22T10:41:09.839Z,22.33
2018-02-22T10:43:39.072Z,24.80
2018-02-22T10:46:08.285Z,25.70
2018-02-22T10:48:38.293Z,21.40
2018-02-22T10:51:08.268Z,19.17
2018-02-22T10:53:37.493Z,23.23
2018-02-22T10:56:07.511Z,21.53
2018-02-22T10:58:37.515Z,20.20
2018-02-22T11:01:12.341Z,20.70
2018-02-22T11:03:42.143Z,20.13
2018-02-22T11:06:11.406Z,20.33
2018-02-22T11:08:40.630Z,21.97
2018-02-22T11:11:09.851Z,19.80
2018-02-22T11:13:39.060Z,20.57
2018-02-22T11:16:09.054Z,20.63
2018-02-22T11:18:38.260Z,20.50
2018-02-22T11:21:07.487Z,18.90
2018-02-22T11:23:37.574Z,17.20
2018-02-22T11:26:06.842Z,17.50
2018-02-22T11:28:37.117Z,17.20
2018-02-22T11:31:06.350Z,15.47
2018-02-22T11:33:35.586Z,13.67
2018-02-22T11:36:04.803Z,17.30
2018-02-22T11:38:34.050Z,15.00
2018-02-22T11:41:04.005Z,15.97
2018-02-22T11:43:33.251Z,14.97
2018-02-22T11:46:02.600Z,14.83
2018-02-22T11:48:31.879Z,12.87
2018-02-22T11:51:01.148Z,16.50
2018-02-22T11:53:30.343Z,11.37
2018-02-22T11:55:59.575Z,15.80
2018-02-22T11:58:28.805Z,13.50
2018-02-22T12:00:58.826Z,14.37
2018-02-22T12:03:28.035Z,14.30
2018-02-22T12:05:57.355Z,14.17
2018-02-22T12:08:26.808Z,14.23
2018-02-22T12:10:56.026Z,15.17
2018-02-22T12:13:26.139Z,13.90
2018-02-22T12:15:56.126Z,14.80
2018-02-22T12:18:25.344Z,13.30
2018-02-22T12:20:54.571Z,11.57
2018-02-22T12:23:24.764Z,13.93
2018-02-22T12:25:55.475Z,16.83
2018-02-22T12:28:24.725Z,14.10
2018-02-22T12:30:54.711Z,16.23
2018-02-22T12:33:23.926Z,13.23
2018-02-22T12:35:53.173Z,15.23
2018-02-22T12:38:22.559Z,14.20
2018-02-22T12:40:51.763Z,14.73
2018-02-22T12:43:20.996Z,11.23
2018-02-22T12:45:50.204Z,13.70
2018-02-22T12:48:19.466Z,12.93
2018-02-22T12:50:49.391Z,11.27
2018-02-22T12:53:18.655Z,15.10
2018-02-22T12:55:47.871Z,14.17
2018-02-22T12:58:17.108Z,11.80
2018-02-22T13:00:46.364Z,13.20
2018-02-22T13:03:15.591Z,10.67
2018-02-22T13:05:44.975Z,11.73
2018-02-22T13:08:14.189Z,13.63
2018-02-22T13:10:43.424Z,18.07
2018-02-22T13:13:13.399Z,12.60
2018-02-22T13:15:42.607Z,15.37
2018-02-22T13:18:11.836Z,13.27
2018-02-22T13:20:41.814Z,16.23
2018-02-22T13:23:11.097Z,13.80
2018-02-22T13:25:40.308Z,17.30
2018-02-22T13:28:09.542Z,15.70
2018-02-22T13:30:39.572Z,12.90
2018-02-22T13:33:27.243Z,13.87
2018-02-22T13:35:56.451Z,12.73
2018-02-22T13:52:05.098Z,16.10
2018-02-22T13:54:34.435Z,16.27
2018-02-22T13:57:11.655Z,13.27
2018-02-22T13:59:40.876Z,16.37
2018-02-22T14:02:27.773Z,13.63
2018-02-22T14:04:57.774Z,18.63
2018-02-22T14:07:27.003Z,15.70
2018-02-22T14:09:56.992Z,14.37
2018-02-22T14:12:26.228Z,13.10
2018-02-22T14:14:55.439Z,14.13
2018-02-22T14:17:24.822Z,16.70
2018-02-22T14:19:54.012Z,14.00
2018-02-22T14:22:23.287Z,15.77
2018-02-22T14:24:53.319Z,14.23
2018-02-22T14:27:23.347Z,16.30
2018-02-22T14:29:53.461Z,18.37
2018-02-22T14:32:22.627Z,17.47
2018-02-22T14:34:51.823Z,15.90
2018-02-22T14:37:21.092Z,21.37
2018-02-22T14:39:50.311Z,14.50
2018-02-22T14:42:19.606Z,18.40
2018-02-22T14:44:48.821Z,14.40
2018-02-22T14:47:18.035Z,18.83
2018-02-22T14:49:47.255Z,20.13
2018-02-22T14:52:16.465Z,16.63
2018-02-22T14:54:45.687Z,15.60
2018-02-22T14:57:14.938Z,16.70
2018-02-22T14:59:45.234Z,17.47
2018-02-22T15:02:20.007Z,17.90
2018-02-22T15:04:49.258Z,21.90
2018-02-22T15:07:18.481Z,19.30
2018-02-22T15:09:48.456Z,19.90
2018-02-22T15:12:17.758Z,18.13
2018-02-22T15:14:47.113Z,15.90
2018-02-22T15:17:17.099Z,20.70
2018-02-22T15:19:46.329Z,25.63
2018-02-22T15:22:16.306Z,21.73
2018-02-22T15:24:45.579Z,17.70
2018-02-22T15:27:14.849Z,20.80
2018-02-22T15:29:44.070Z,19.40
2018-02-22T15:32:13.318Z,20.50
2018-02-22T15:34:43.300Z,25.83
2018-02-22T15:37:12.629Z,18.60
2018-02-22T15:39:42.633Z,19.27
2018-02-22T15:42:11.894Z,20.20
2018-02-22T15:44:41.086Z,21.27
2018-02-22T15:47:10.359Z,22.00
2018-02-22T15:49:40.324Z,20.37
2018-02-22T15:52:09.554Z,21.53
2018-02-22T15:54:39.545Z,15.40
2018-02-22T15:57:09.630Z,22.43
2018-02-22T15:59:38.990Z,22.20
2018-02-22T16:02:09.143Z,22.60
2018-02-22T16:04:38.381Z,23.60
2018-02-22T16:07:07.595Z,19.40
2018-02-22T16:09:36.839Z,25.67
2018-02-22T16:12:06.155Z,22.77
2018-02-22T16:14:35.392Z,23.37
2018-02-22T16:17:04.687Z,21.87
2018-02-22T16:19:33.923Z,23.70
2018-02-22T16:22:03.133Z,22.10
2018-02-22T16:24:32.383Z,29.53
2018-02-22T16:27:02.412Z,29.07
2018-02-22T16:29:32.410Z,25.23
2018-02-22T16:32:03.150Z,27.30
2018-02-22T16:34:32.511Z,24.47
2018-02-22T16:37:01.848Z,24.90
2018-02-22T16:39:31.373Z,24.20
2018-02-22T16:42:01.471Z,28.30
2018-02-22T16:44:30.692Z,25.97
2018-02-22T16:47:00.708Z,24.63
2018-02-22T16:49:29.919Z,23.90
2018-02-22T16:51:59.395Z,20.33
2018-02-22T16:54:30.197Z,23.77
2018-02-22T16:57:03.206Z,24.17
2018-02-22T16:59:32.474Z,23.60
2018-02-22T17:02:01.747Z,23.03
2018-02-22T17:04:31.002Z,21.97
2018-02-22T17:07:00.219Z,21.60
2018-02-22T17:09:30.247Z,22.43
2018-02-22T17:11:59.575Z,20.60
2018-02-22T17:14:28.818Z,28.03
2018-02-22T17:16:58.055Z,24.07
2018-02-22T17:19:27.291Z,26.20
2018-02-22T17:21:56.534Z,30.23
2018-02-22T17:24:26.541Z,27.10
2018-02-22T17:27:02.077Z,23.73
2018-02-22T17:29:37.606Z,25.23
2018-02-22T17:32:12.460Z,31.00
2018-02-22T17:34:41.695Z,24.37
2018-02-22T17:37:13.619Z,27.60
2018-02-22T17:39:57.607Z,24.50
2018-02-22T17:42:26.836Z,26.73
2018-02-22T17:44:56.068Z,22.70
2018-02-22T17:47:26.062Z,23.83
2018-02-22T17:49:56.116Z,27.07
2018-02-22T17:52:25.613Z,23.43
2018-02-22T17:54:55.716Z,25.80
2018-02-22T17:57:24.964Z,25.87
2018-02-22T17:59:54.243Z,30.70
2018-02-22T18:02:23.500Z,27.20
2018-02-22T18:04:53.579Z,30.90
2018-02-22T18:07:22.824Z,27.47
2018-02-22T18:09:52.816Z,25.47
2018-02-22T18:12:22.048Z,26.60
2018-02-22T18:14:51.376Z,24.70
2018-02-22T18:17:20.600Z,23.10
2018-02-22T18:19:50.025Z,27.90
2018-02-22T18:22:19.586Z,25.10
2018-02-22T18:24:49.559Z,24.80
2018-02-22T18:27:19.558Z,21.30
2018-02-22T18:29:48.976Z,27.10
2018-02-22T18:32:18.176Z,24.50
2018-02-22T18:34:47.379Z,26.03
2018-02-22T18:50:44.027Z,29.13
2018-02-22T18:53:13.237Z,27.43
2018-02-22T18:55:42.443Z,32.17
2018-02-22T18:58:11.901Z,30.63
2018-02-22T19:00:41.895Z,31.90
2018-02-22T19:03:11.168Z,27.30
2018-02-22T19:05:40.396Z,23.20
2018-02-22T19:08:09.642Z,21.20
2018-02-22T19:10:38.870Z,21.10
2018-02-22T19:13:08.925Z,22.20
2018-02-22T19:15:38.160Z,22.20
2018-02-22T19:18:07.434Z,20.70
2018-02-22T19:20:36.735Z,23.97
2018-02-22T19:23:06.900Z,26.97
2018-02-22T19:25:36.188Z,24.03
2018-02-22T19:28:05.480Z,22.10
2018-02-22T19:30:34.752Z,21.63
2018-02-22T19:33:03.980Z,24.17
2018-02-22T19:35:33.224Z,26.00
2018-02-22T19:38:02.469Z,21.20
2018-02-22T19:40:31.740Z,19.80
2018-02-22T19:43:01.757Z,22.40
2018-02-22T19:45:32.016Z,24.47
2018-02-22T19:48:01.270Z,24.33
2018-02-22T19:50:30.530Z,28.40
2018-02-22T19:52:59.827Z,24.60
2018-02-22T19:55:29.058Z,25.03
2018-02-22T19:57:59.098Z,22.80
2018-02-22T20:00:28.311Z,22.47
2018-02-22T20:02:57.565Z,25.00
2018-02-22T20:05:26.802Z,22.20
2018-02-22T20:07:56.080Z,26.03
2018-02-22T20:10:25.333Z,24.20
2018-02-22T20:12:54.643Z,26.10
2018-02-22T20:15:24.063Z,25.73
2018-02-22T20:17:54.084Z,25.60
2018-02-22T20:20:23.485Z,26.83
2018-02-22T20:22:53.515Z,21.80
2018-02-22T20:25:23.524Z,24.03
2018-02-22T20:27:53.519Z,27.23
2018-02-22T20:30:23.555Z,26.40
2018-02-22T20:32:53.610Z,25.90
2018-02-22T20:35:22.941Z,27.67
2018-02-22T20:37:52.186Z,31.90
2018-02-22T20:40:21.427Z,35.43
2018-02-22T20:42:50.843Z,26.77
2018-02-22T20:45:20.129Z,33.07
2018-02-22T20:47:50.135Z,31.10
2018-02-22T20:50:19.415Z,25.43
2018-02-22T20:53:05.184Z,26.60
2018-02-22T20:55:35.216Z,24.13
2018-02-22T20:58:04.454Z,24.57
2018-02-22T21:00:33.715Z,29.13
2018-02-22T21:03:02.946Z,38.00
2018-02-22T21:05:32.233Z,26.80
2018-02-22T21:08:01.468Z,29.10
2018-02-22T21:10:30.717Z,27.97
2018-02-22T21:12:59.977Z,31.93
2018-02-22T21:15:29.994Z,34.20
2018-02-22T21:18:00.039Z,30.97
2018-02-22T21:20:29.293Z,27.70
2018-02-22T21:22:58.536Z,27.33
2018-02-22T21:25:27.781Z,26.27
2018-02-22T21:27:57.028Z,28.00
2018-02-22T21:30:26.251Z,30.60
2018-02-22T21:32:55.480Z,24.17
2018-02-22T21:35:24.799Z,26.00
2018-02-22T21:37:54.802Z,29.63
2018-02-22T21:40:24.014Z,24.30
2018-02-22T21:42:54.074Z,25.27
2018-02-22T21:45:23.311Z,24.67
2018-02-22T21:47:52.600Z,29.30
2018-02-22T21:50:21.965Z,29.07
2018-02-22T21:52:51.234Z,25.20
2018-02-22T21:55:21.222Z,24.97
2018-02-22T21:57:50.653Z,25.30
2018-02-22T22:00:20.718Z,28.20
2018-02-22T22:02:49.932Z,29.90
2018-02-22T22:05:19.195Z,26.70
2018-02-22T22:07:48.422Z,28.83
2018-02-22T22:10:17.684Z,26.93
2018-02-22T22:12:46.996Z,30.77
2018-02-22T22:15:16.272Z,27.37
2018-02-22T22:17:46.294Z,32.43
2018-02-22T22:20:15.583Z,26.40
2018-02-22T22:22:44.881Z,28.57
2018-02-22T22:25:14.131Z,28.60
2018-02-22T22:27:43.352Z,31.03
2018-02-22T22:30:12.602Z,32.07
2018-02-22T22:32:42.074Z,27.03
2018-02-22T22:35:12.087Z,27.80
2018-02-22T22:37:42.094Z,29.97
2018-02-22T22:40:11.374Z,31.53
2018-02-22T22:42:41.426Z,28.00
2018-02-22T22:45:11.472Z,27.27
2018-02-22T22:47:40.695Z,30.80
2018-02-22T22:50:09.961Z,36.50
2018-02-22T22:52:39.369Z,27.07
2018-02-22T22:55:08.626Z,26.77
2018-02-22T22:57:38.642Z,29.47
2018-02-22T23:00:07.876Z,36.93
2018-02-22T23:02:37.136Z,28.90
2018-02-22T23:05:07.130Z,24.77
2018-02-22T23:07:36.439Z,28.93
2018-02-22T23:10:07.187Z,27.43
2018-02-22T23:12:36.427Z,35.27
2018-02-22T23:15:05.654Z,28.93
2018-02-22T23:17:34.897Z,26.73
2018-02-22T23:20:04.299Z,34.23
2018-02-22T23:22:33.639Z,28.00
2018-02-22T23:25:02.945Z,27.87
2018-02-22T23:27:32.231Z,32.07
2018-02-22T23:30:02.408Z,27.17
2018-02-22T23:32:32.427Z,30.50
2018-02-22T23:35:01.825Z,32.00
2018-02-22T23:37:31.943Z,30.07
2018-02-22T23:40:01.214Z,29.57
2018-02-22T23:42:34.747Z,30.73
2018-02-22T23:45:04.747Z,25.57
2018-02-22T23:47:34.788Z,24.23
2018-02-22T23:50:04.012Z,23.73
2018-02-22T23:52:33.343Z,29.50
2018-02-22T23:55:02.564Z,27.43
2018-02-22T23:57:31.852Z,22.10
